createdAt,value
2018-10-03T00:03:15.444Z,98168.00
2018-10-03T00:07:17.764Z,98177.00
2018-10-03T00:11:20.057Z,98174.00
2018-10-03T00:15:22.389Z,98180.00
2018-10-03T00:19:24.819Z,98174.00
2018-10-03T00:23:27.085Z,98178.00
2018-10-03T00:27:29.381Z,98184.00
2018-10-03T00:31:31.678Z,98183.00
2018-10-03T00:35:33.959Z,98181.00
2018-10-03T00:39:36.249Z,98188.00
2018-10-03T00:43:38.503Z,98185.00
2018-10-03T00:47:40.807Z,98194.00
2018-10-03T00:51:43.129Z,98191.00
2018-10-03T00:55:45.393Z,98195.00
2018-10-03T00:59:47.688Z,98188.00
2018-10-03T01:03:49.996Z,98183.00
2018-10-03T01:07:52.447Z,98177.00
2018-10-03T01:11:54.828Z,98188.00
2018-10-03T01:15:57.154Z,98181.00
2018-10-03T01:20:01.434Z,98173.00
2018-10-03T01:24:05.513Z,98178.00
2018-10-03T01:28:08.893Z,98178.00
2018-10-03T01:32:21.754Z,98177.00
2018-10-03T01:36:26.156Z,98190.00
2018-10-03T01:40:30.069Z,98199.00
2018-10-03T01:44:33.548Z,98206.00
2018-10-03T01:48:38.033Z,98202.00
2018-10-03T01:52:40.703Z,98204.00
2018-10-03T01:56:44.907Z,98214.00
2018-10-03T02:00:47.204Z,98205.00
2018-10-03T02:04:49.486Z,98207.00
2018-10-03T02:08:51.891Z,98212.00
2018-10-03T02:12:54.238Z,98212.00
2018-10-03T02:18:26.028Z,98188.00
2018-10-03T02:22:28.464Z,98199.00
2018-10-03T02:26:30.862Z,98196.00
2018-10-03T02:30:33.152Z,98204.00
2018-10-03T02:34:35.452Z,98201.00
2018-10-03T02:38:37.905Z,98205.00
2018-10-03T02:42:40.241Z,98212.00
2018-10-03T02:46:42.561Z,98220.00
2018-10-03T02:50:44.866Z,98241.00
2018-10-03T02:54:47.205Z,98226.00
2018-10-03T02:58:49.517Z,98238.00
2018-10-03T03:02:51.800Z,98236.00
2018-10-03T03:06:54.126Z,98232.00
2018-10-03T03:10:56.552Z,98239.00
2018-10-03T03:14:58.930Z,98243.00
2018-10-03T03:19:01.266Z,98253.00
2018-10-03T03:23:03.566Z,98257.00
2018-10-03T03:27:05.879Z,98249.00
2018-10-03T03:31:08.126Z,98253.00
2018-10-03T03:35:10.421Z,98259.00
2018-10-03T03:39:12.718Z,98244.00
2018-10-03T03:43:14.996Z,98256.00
2018-10-03T03:47:17.291Z,98267.00
2018-10-03T03:51:19.590Z,98282.00
2018-10-03T03:55:21.879Z,98286.00
2018-10-03T04:03:37.556Z,98282.00
2018-10-03T04:07:39.893Z,98302.00
2018-10-03T04:11:42.246Z,98297.00
2018-10-03T04:15:44.561Z,98303.00
2018-10-03T04:19:46.829Z,98306.00
2018-10-03T04:23:49.118Z,98302.00
2018-10-03T04:27:51.506Z,98293.00
2018-10-03T04:31:53.797Z,98289.00
2018-10-03T04:35:56.150Z,98296.00
2018-10-03T04:39:58.476Z,98307.00
2018-10-03T04:44:00.821Z,98307.00
2018-10-03T04:48:03.155Z,98304.00
2018-10-03T04:52:05.571Z,98311.00
2018-10-03T04:56:07.882Z,98315.00
2018-10-03T05:00:10.254Z,98314.00
2018-10-03T05:04:12.624Z,98324.00
2018-10-03T05:08:15.039Z,98326.00
2018-10-03T05:12:17.375Z,98326.00
2018-10-03T05:16:19.713Z,98327.00
2018-10-03T05:20:22.066Z,98337.00
2018-10-03T05:24:24.351Z,98343.00
2018-10-03T05:28:26.636Z,98353.00
2018-10-03T05:32:28.937Z,98367.00
2018-10-03T05:36:31.276Z,98379.00
2018-10-03T05:40:33.585Z,98380.00
2018-10-03T05:44:35.860Z,98385.00
2018-10-03T05:48:38.294Z,98388.00
2018-10-03T05:52:40.611Z,98397.00
2018-10-03T05:56:42.937Z,98412.00
2018-10-03T06:00:45.266Z,98419.00
2018-10-03T06:04:47.594Z,98427.00
2018-10-03T06:08:49.896Z,98422.00
2018-10-03T06:12:52.225Z,98424.00
2018-10-03T06:16:54.547Z,98427.00
2018-10-03T06:20:56.934Z,98437.00
2018-10-03T06:24:59.256Z,98439.00
2018-10-03T06:29:01.664Z,98452.00
2018-10-03T06:33:03.984Z,98455.00
2018-10-03T06:37:06.482Z,98466.00
2018-10-03T06:41:08.891Z,98479.00
2018-10-03T06:45:11.218Z,98465.00
2018-10-03T06:49:13.574Z,98472.00
2018-10-03T06:53:15.952Z,98475.00
2018-10-03T06:57:18.270Z,98468.00
2018-10-03T07:01:20.591Z,98483.00
2018-10-03T07:05:22.934Z,98495.00
2018-10-03T07:09:25.303Z,98493.00
2018-10-03T07:13:27.670Z,98498.00
2018-10-03T07:17:29.990Z,98491.00
2018-10-03T07:21:32.345Z,98494.00
2018-10-03T07:25:34.660Z,98499.00
2018-10-03T07:29:37.038Z,98490.00
2018-10-03T07:33:39.378Z,98501.00
2018-10-03T07:37:41.724Z,98495.00
2018-10-03T07:41:44.046Z,98501.00
2018-10-03T07:45:46.423Z,98515.00
2018-10-03T07:49:48.758Z,98515.00
2018-10-03T07:53:51.085Z,98535.00
2018-10-03T07:57:53.381Z,98535.00
2018-10-03T08:01:56.648Z,98539.00
2018-10-03T08:05:59.015Z,98535.00
2018-10-03T08:10:01.451Z,98547.00
2018-10-03T08:14:03.731Z,98559.00
2018-10-03T08:18:06.039Z,98560.00
2018-10-03T08:22:08.373Z,98580.00
2018-10-03T08:26:10.733Z,98579.00
2018-10-03T08:30:13.070Z,98583.00
2018-10-03T08:34:15.584Z,98588.00
2018-10-03T08:38:17.948Z,98587.00
2018-10-03T08:42:20.355Z,98598.00
2018-10-03T08:46:22.655Z,98589.00
2018-10-03T08:50:24.985Z,98603.00
2018-10-03T08:54:27.273Z,98602.00
2018-10-03T08:58:29.851Z,98624.00
2018-10-03T09:02:31.970Z,98624.00
2018-10-03T09:06:34.309Z,98624.00
2018-10-03T09:10:36.809Z,98638.00
2018-10-03T09:14:39.084Z,98648.00
2018-10-03T09:18:41.378Z,98646.00
2018-10-03T09:22:43.853Z,98656.00
2018-10-03T09:26:46.203Z,98662.00
2018-10-03T09:30:48.514Z,98656.00
2018-10-03T09:34:50.779Z,98664.00
2018-10-03T09:38:53.099Z,98664.00
2018-10-03T09:42:55.463Z,98663.00
2018-10-03T09:46:57.773Z,98674.00
2018-10-03T09:51:00.040Z,98675.00
2018-10-03T09:55:02.359Z,98672.00
2018-10-03T10:00:40.203Z,98686.00
2018-10-03T10:04:42.623Z,98694.00
2018-10-03T10:08:45.142Z,98683.00
2018-10-03T10:12:47.850Z,98686.00
2018-10-03T10:16:50.166Z,98686.00
2018-10-03T10:20:52.511Z,98686.00
2018-10-03T10:24:54.843Z,98693.00
2018-10-03T10:28:57.693Z,98691.00
2018-10-03T10:33:00.179Z,98704.00
2018-10-03T10:37:02.463Z,98704.00
2018-10-03T10:41:04.857Z,98696.00
2018-10-03T10:45:07.257Z,98724.00
2018-10-03T10:49:11.117Z,98721.00
2018-10-03T10:53:13.455Z,98732.00
2018-10-03T10:57:15.734Z,98721.00
2018-10-03T11:01:18.089Z,98705.00
2018-10-03T11:05:20.435Z,98728.00
2018-10-03T11:09:22.781Z,98727.00
2018-10-03T11:13:25.091Z,98733.00
2018-10-03T11:17:27.467Z,98734.00
2018-10-03T11:21:29.783Z,98731.00
2018-10-03T11:25:32.103Z,98734.00
2018-10-03T11:29:34.429Z,98726.00
2018-10-03T11:33:36.728Z,98728.00
2018-10-03T11:37:39.048Z,98749.00
2018-10-03T11:41:41.721Z,98752.00
2018-10-03T11:45:44.127Z,98744.00
2018-10-03T11:49:46.467Z,98735.00
2018-10-03T11:53:48.784Z,98744.00
2018-10-03T11:57:51.088Z,98736.00
2018-10-03T12:01:53.428Z,98721.00
2018-10-03T12:05:55.842Z,98731.00
2018-10-03T12:09:58.132Z,98724.00
2018-10-03T12:14:00.456Z,98725.00
2018-10-03T12:18:02.841Z,98736.00
2018-10-03T12:22:05.327Z,98739.00
2018-10-03T12:26:08.377Z,98742.00
2018-10-03T12:30:10.737Z,98738.00
2018-10-03T12:34:14.004Z,98738.00
2018-10-03T12:38:16.296Z,98734.00
2018-10-03T12:42:18.584Z,98732.00
2018-10-03T12:46:20.922Z,98725.00
2018-10-03T12:50:23.293Z,98737.00
2018-10-03T12:54:25.697Z,98732.00
2018-10-03T12:58:28.018Z,98722.00
2018-10-03T13:02:30.506Z,98738.00
2018-10-03T13:08:02.326Z,98740.00
2018-10-03T13:12:05.377Z,98740.00
2018-10-03T13:16:07.848Z,98738.00
2018-10-03T13:20:10.232Z,98735.00
2018-10-03T13:24:12.559Z,98728.00
2018-10-03T13:28:14.846Z,98739.00
2018-10-03T13:32:17.667Z,98735.00
2018-10-03T13:36:21.042Z,98736.00
2018-10-03T13:40:23.608Z,98748.00
2018-10-03T13:44:25.905Z,98743.00
2018-10-03T13:48:28.222Z,98750.00
2018-10-03T13:52:30.521Z,98747.00
2018-10-03T13:56:32.896Z,98751.00
2018-10-03T14:00:35.593Z,98754.00
2018-10-03T14:04:38.026Z,98746.00
2018-10-03T14:08:41.193Z,98751.00
2018-10-03T14:12:43.569Z,98751.00
2018-10-03T14:16:45.937Z,98768.00
2018-10-03T14:20:48.317Z,98756.00
2018-10-03T14:24:50.687Z,98751.00
2018-10-03T14:28:53.177Z,98755.00
2018-10-03T14:32:55.590Z,98757.00
2018-10-03T14:36:57.944Z,98756.00
2018-10-03T14:41:00.247Z,98759.00
2018-10-03T14:45:02.653Z,98762.00
2018-10-03T14:49:05.245Z,98783.00
2018-10-03T14:53:07.627Z,98770.00
2018-10-03T14:57:09.955Z,98775.00
2018-10-03T15:01:12.265Z,98780.00
2018-10-03T15:05:14.619Z,98774.00
2018-10-03T15:09:17.061Z,98775.00
2018-10-03T15:13:19.379Z,98779.00
2018-10-03T15:17:21.766Z,98796.00
2018-10-03T15:21:24.133Z,98803.00
2018-10-03T15:25:26.487Z,98809.00
2018-10-03T15:29:28.822Z,98806.00
2018-10-03T15:33:31.148Z,98805.00
2018-10-03T15:37:33.543Z,98804.00
2018-10-03T15:41:35.932Z,98812.00
2018-10-03T15:45:38.250Z,98809.00
2018-10-03T15:49:40.572Z,98808.00
2018-10-03T15:53:42.880Z,98821.00
2018-10-03T15:57:45.220Z,98820.00
2018-10-03T16:01:47.520Z,98822.00
2018-10-03T16:05:49.830Z,98823.00
2018-10-03T16:09:52.155Z,98819.00
2018-10-03T16:13:54.459Z,98833.00
2018-10-03T16:17:56.830Z,98832.00
2018-10-03T16:21:59.176Z,98827.00
2018-10-03T16:26:01.632Z,98842.00
2018-10-03T16:30:04.037Z,98829.00
2018-10-03T16:34:06.382Z,98839.00
2018-10-03T16:38:08.941Z,98839.00
2018-10-03T16:42:11.300Z,98842.00
2018-10-03T16:46:13.646Z,98843.00
2018-10-03T16:50:15.995Z,98846.00
2018-10-03T16:54:18.360Z,98846.00
2018-10-03T16:58:20.632Z,98784.00
2018-10-03T17:02:22.990Z,98851.00
2018-10-03T17:06:25.325Z,98854.00
2018-10-03T17:10:27.711Z,98862.00
2018-10-03T17:14:33.220Z,98863.00
2018-10-03T17:18:35.600Z,98877.00
2018-10-03T17:22:37.962Z,98878.00
2018-10-03T17:26:41.092Z,98876.00
2018-10-03T17:30:43.418Z,98884.00
2018-10-03T17:34:45.819Z,98892.00
2018-10-03T17:38:48.178Z,98893.00
2018-10-03T17:42:50.518Z,98872.00
2018-10-03T17:46:54.429Z,98909.00
2018-10-03T17:50:56.876Z,98906.00
2018-10-03T17:54:59.848Z,98917.00
2018-10-03T17:59:03.283Z,98915.00
2018-10-03T18:03:10.266Z,98918.00
2018-10-03T18:07:17.209Z,98922.00
2018-10-03T18:11:23.719Z,98931.00
2018-10-03T18:15:26.265Z,98932.00
2018-10-03T18:19:28.606Z,98939.00
2018-10-03T18:23:30.966Z,98938.00
2018-10-03T18:27:34.324Z,98948.00
2018-10-03T18:31:36.764Z,98946.00
2018-10-03T18:35:39.200Z,98948.00
2018-10-03T18:39:42.606Z,98939.00
2018-10-03T18:43:46.093Z,98940.00
2018-10-03T18:47:49.435Z,98950.00
2018-10-03T18:51:53.202Z,98940.00
2018-10-03T18:55:56.091Z,98934.00
2018-10-03T18:59:58.924Z,98943.00
2018-10-03T19:04:01.714Z,98948.00
2018-10-03T19:08:13.970Z,98946.00
2018-10-03T19:12:16.774Z,98953.00
2018-10-03T19:16:19.300Z,98955.00
2018-10-03T19:20:21.983Z,98949.00
2018-10-03T19:24:24.645Z,98955.00
2018-10-03T19:28:27.324Z,98962.00
2018-10-03T19:32:30.241Z,98962.00
2018-10-03T19:36:32.969Z,98966.00
2018-10-03T19:40:35.501Z,98958.00
2018-10-03T19:44:38.815Z,98960.00
2018-10-03T19:48:42.108Z,98977.00
2018-10-03T19:52:44.455Z,98967.00
2018-10-03T19:56:47.345Z,98969.00
2018-10-03T20:00:51.114Z,98967.00
2018-10-03T20:04:53.668Z,98968.00
2018-10-03T20:08:56.595Z,98969.00
2018-10-03T20:12:59.173Z,98976.00
2018-10-03T20:17:01.614Z,98967.00
2018-10-03T20:21:04.091Z,98966.00
2018-10-03T20:25:06.642Z,98968.00
2018-10-03T20:29:08.994Z,98960.00
2018-10-03T20:33:11.385Z,98965.00
2018-10-03T20:37:13.789Z,98974.00
2018-10-03T20:41:16.249Z,98967.00
2018-10-03T20:45:18.589Z,98963.00
2018-10-03T20:49:20.970Z,98962.00
2018-10-03T20:53:23.398Z,98955.00
2018-10-03T20:57:25.750Z,98954.00
2018-10-03T21:01:28.083Z,98957.00
2018-10-03T21:05:30.460Z,98957.00
2018-10-03T21:09:32.803Z,98953.00
2018-10-03T21:13:35.210Z,98949.00
2018-10-03T21:17:37.598Z,98945.00
2018-10-03T21:21:39.879Z,98937.00
2018-10-03T21:25:42.728Z,98936.00
2018-10-03T21:29:45.035Z,98940.00
2018-10-03T21:33:47.445Z,98939.00
2018-10-03T21:37:49.738Z,98950.00
2018-10-03T21:41:52.089Z,98938.00
2018-10-03T21:45:54.462Z,98956.00
2018-10-03T21:49:56.822Z,98948.00
2018-10-03T21:53:59.097Z,98949.00
2018-10-03T21:58:01.435Z,98952.00
2018-10-03T22:02:03.903Z,98947.00
2018-10-03T22:06:06.212Z,98937.00
2018-10-03T22:10:08.557Z,98942.00
2018-10-03T22:14:10.931Z,98938.00
2018-10-03T22:18:13.229Z,98938.00
2018-10-03T22:22:15.552Z,98942.00
2018-10-03T22:26:17.866Z,98952.00
2018-10-03T22:30:20.297Z,98945.00
2018-10-03T22:34:22.804Z,98943.00
2018-10-03T22:38:25.157Z,98956.00
2018-10-03T22:42:27.528Z,98952.00
2018-10-03T22:46:29.912Z,98946.00
2018-10-03T22:50:33.397Z,98958.00
2018-10-03T22:54:36.646Z,98959.00
2018-10-03T22:58:38.939Z,98968.00
2018-10-03T23:02:41.284Z,98961.00
2018-10-03T23:06:43.559Z,98967.00
2018-10-03T23:10:45.888Z,98976.00
2018-10-03T23:14:48.206Z,98983.00
2018-10-03T23:18:50.482Z,98980.00
2018-10-03T23:22:52.806Z,98981.00
2018-10-03T23:26:55.141Z,98976.00
2018-10-03T23:30:57.448Z,98984.00
2018-10-03T23:34:59.682Z,98982.00
2018-10-03T23:39:01.969Z,98989.00
2018-10-03T23:43:04.288Z,98988.00
2018-10-03T23:47:06.648Z,98986.00
2018-10-03T23:51:08.993Z,98985.00
2018-10-03T23:55:11.438Z,98981.00
2018-10-03T23:59:13.711Z,98989.00
